Main page
METAR-TAF:

METAR-TAF

Airports :

Bergamo, Italy

Orio al Serio International Airport

latitude: 45-40N, longitude: 009-42E, elevation: 238 m

Current weather observation

The report was made 19 minutes ago, at 20:20 UTC
Wind 7 kt from the East/Southeast
Temperature 24°C
Humidity 65%
Pressure 1008 hPa
Visibility 10 km or more
Broken clouds at a height of 7000 ft

METAR: LIME 272020Z 11007KT 9999 BKN070 24/17 Q1008 NOSIG

Time: 22:39 (20:39 UTC)

Forecast

The report was made 3 hours and 39 minutes ago, at 17:00 UTC
Forecast valid from 27 at 18 UTC to 28 at 18 UTC
Wind 7 kt from the East/Southeast
Visibility 10 km or more
Broken clouds at a height of 5000 ft
Temporary
from 27 at 20 UTC to 28 at 18 UTC
Visibility: 3000 m
thunderstorm, rain

TAF: LIME 271700Z 2718/2818 12007KT 9999 BKN050 TEMPO 2720/2818 3000 TSRA

Weather observations and forecasts of more than 4000 airports (METAR and TAF reports).

The available stations are represented by yellow and red dots on the map.

Hover mouse over dot to see the name of the station.

Then click to see weather observations and forecasts.

To change the map : click on the green buttons with a black cross to zoom in, on the green button with a dash to zoom out, or on the green arrows for adjacent maps.


METAR-TAF: